sensor_id;sensor_type;location;lat;lon;timestamp;temperature;humidity
5802;DHT22;2927;49.366;8.530;2023-09-12T00:00:55;19.20;99.90
5802;DHT22;2927;49.366;8.530;2023-09-12T00:03:22;19.20;99.90
5802;DHT22;2927;49.366;8.530;2023-09-12T00:05:55;19.20;99.90
5802;DHT22;2927;49.366;8.530;2023-09-12T00:08:22;19.20;99.90
5802;DHT22;2927;49.366;8.530;2023-09-12T00:11:04;19.10;99.90
5802;DHT22;2927;49.366;8.530;2023-09-12T00:13:30;19.10;99.90
5802;DHT22;2927;49.366;8.530;2023-09-12T00:15:57;19.10;99.90
5802;DHT22;2927;49.366;8.530;2023-09-12T00:18:22;19.10;99.90
5802;DHT22;2927;49.366;8.530;2023-09-12T00:20:49;19.10;99.90
5802;DHT22;2927;49.366;8.530;2023-09-12T00:23:14;19.10;99.90
5802;DHT22;2927;49.366;8.530;2023-09-12T00:25:40;19.10;99.90
5802;DHT22;2927;49.366;8.530;2023-09-12T00:28:05;19.00;99.90
5802;DHT22;2927;49.366;8.530;2023-09-12T00:30:31;19.00;99.90
5802;DHT22;2927;49.366;8.530;2023-09-12T00:32:56;19.00;99.90
5802;DHT22;2927;49.366;8.530;2023-09-12T00:35:22;19.00;99.90
5802;DHT22;2927;49.366;8.530;2023-09-12T00:37:47;19.00;99.90
5802;DHT22;2927;49.366;8.530;2023-09-12T00:40:13;19.00;99.90
5802;DHT22;2927;49.366;8.530;2023-09-12T00:42:38;19.10;99.90
5802;DHT22;2927;49.366;8.530;2023-09-12T00:45:04;19.10;99.90
5802;DHT22;2927;49.366;8.530;2023-09-12T00:47:30;19.10;99.90
5802;DHT22;2927;49.366;8.530;2023-09-12T00:49:57;19.10;99.90
5802;DHT22;2927;49.366;8.530;2023-09-12T00:52:25;19.10;99.90
5802;DHT22;2927;49.366;8.530;2023-09-12T00:54:52;19.10;99.90
5802;DHT22;2927;49.366;8.530;2023-09-12T00:57:17;19.10;99.90
5802;DHT22;2927;49.366;8.530;2023-09-12T00:59:44;19.10;99.90
5802;DHT22;2927;49.366;8.530;2023-09-12T01:02:09;19.00;99.90
5802;DHT22;2927;49.366;8.530;2023-09-12T01:04:36;19.00;99.90
5802;DHT22;2927;49.366;8.530;2023-09-12T01:07:05;18.90;99.90
5802;DHT22;2927;49.366;8.530;2023-09-12T01:09:31;18.80;99.90
5802;DHT22;2927;49.366;8.530;2023-09-12T01:11:57;18.80;99.90
5802;DHT22;2927;49.366;8.530;2023-09-12T01:14:23;18.70;99.90
5802;DHT22;2927;49.366;8.530;2023-09-12T01:16:49;18.70;99.90
5802;DHT22;2927;49.366;8.530;2023-09-12T01:19:14;18.60;99.90
5802;DHT22;2927;49.366;8.530;2023-09-12T01:27:16;18.50;99.90
5802;DHT22;2927;49.366;8.530;2023-09-12T01:29:44;18.50;99.90
5802;DHT22;2927;49.366;8.530;2023-09-12T01:32:12;18.60;99.90
5802;DHT22;2927;49.366;8.530;2023-09-12T01:34:38;18.60;99.90
5802;DHT22;2927;49.366;8.530;2023-09-12T01:37:04;18.70;99.90
5802;DHT22;2927;49.366;8.530;2023-09-12T01:39:29;18.70;99.90
5802;DHT22;2927;49.366;8.530;2023-09-12T01:41:55;18.70;99.90
5802;DHT22;2927;49.366;8.530;2023-09-12T01:44:24;18.70;99.90
5802;DHT22;2927;49.366;8.530;2023-09-12T01:46:51;18.70;99.90
5802;DHT22;2927;49.366;8.530;2023-09-12T01:49:21;18.60;99.90
5802;DHT22;2927;49.366;8.530;2023-09-12T01:51:47;18.60;99.90
5802;DHT22;2927;49.366;8.530;2023-09-12T01:54:14;18.70;99.90
5802;DHT22;2927;49.366;8.530;2023-09-12T01:56:40;18.60;99.90
5802;DHT22;2927;49.366;8.530;2023-09-12T01:59:06;18.60;99.90
5802;DHT22;2927;49.366;8.530;2023-09-12T02:01:32;18.50;99.90
5802;DHT22;2927;49.366;8.530;2023-09-12T02:03:57;18.50;99.90
5802;DHT22;2927;49.366;8.530;2023-09-12T02:06:23;18.50;99.90
5802;DHT22;2927;49.366;8.530;2023-09-12T02:08:49;18.50;99.90
5802;DHT22;2927;49.366;8.530;2023-09-12T02:11:14;18.50;99.90
5802;DHT22;2927;49.366;8.530;2023-09-12T02:13:40;18.60;99.90
5802;DHT22;2927;49.366;8.530;2023-09-12T02:16:05;18.60;99.90
5802;DHT22;2927;49.366;8.530;2023-09-12T02:18:31;18.50;99.90
5802;DHT22;2927;49.366;8.530;2023-09-12T02:20:58;18.50;99.90
5802;DHT22;2927;49.366;8.530;2023-09-12T02:23:24;18.40;99.90
5802;DHT22;2927;49.366;8.530;2023-09-12T02:25:49;18.30;99.90
5802;DHT22;2927;49.366;8.530;2023-09-12T02:28:15;18.30;99.90
5802;DHT22;2927;49.366;8.530;2023-09-12T02:30:41;18.30;99.90
5802;DHT22;2927;49.366;8.530;2023-09-12T02:33:07;18.20;99.90
5802;DHT22;2927;49.366;8.530;2023-09-12T02:35:32;18.20;99.90
5802;DHT22;2927;49.366;8.530;2023-09-12T02:37:58;18.20;99.90
5802;DHT22;2927;49.366;8.530;2023-09-12T02:40:24;18.10;99.90
5802;DHT22;2927;49.366;8.530;2023-09-12T02:42:49;18.10;99.90
5802;DHT22;2927;49.366;8.530;2023-09-12T02:45:15;18.00;99.90
5802;DHT22;2927;49.366;8.530;2023-09-12T02:47:40;18.00;99.90
5802;DHT22;2927;49.366;8.530;2023-09-12T02:50:09;17.90;99.90
5802;DHT22;2927;49.366;8.530;2023-09-12T02:52:34;17.90;99.90
5802;DHT22;2927;49.366;8.530;2023-09-12T02:55:00;17.80;99.90
5802;DHT22;2927;49.366;8.530;2023-09-12T02:57:25;17.80;99.90
5802;DHT22;2927;49.366;8.530;2023-09-12T02:59:51;17.80;99.90
5802;DHT22;2927;49.366;8.530;2023-09-12T03:02:16;17.80;99.90
5802;DHT22;2927;49.366;8.530;2023-09-12T03:04:42;17.80;99.90
5802;DHT22;2927;49.366;8.530;2023-09-12T03:07:08;17.80;99.90
5802;DHT22;2927;49.366;8.530;2023-09-12T03:09:33;17.80;99.90
5802;DHT22;2927;49.366;8.530;2023-09-12T03:12:01;17.80;99.90
5802;DHT22;2927;49.366;8.530;2023-09-12T03:14:28;17.80;99.90
5802;DHT22;2927;49.366;8.530;2023-09-12T03:16:53;17.90;99.90
5802;DHT22;2927;49.366;8.530;2023-09-12T03:19:19;18.00;99.90
5802;DHT22;2927;49.366;8.530;2023-09-12T03:21:44;18.00;99.90
5802;DHT22;2927;49.366;8.530;2023-09-12T03:24:10;18.10;99.90
5802;DHT22;2927;49.366;8.530;2023-09-12T03:26:36;18.10;99.90
5802;DHT22;2927;49.366;8.530;2023-09-12T03:29:04;18.10;99.90
5802;DHT22;2927;49.366;8.530;2023-09-12T03:31:29;18.20;99.90
5802;DHT22;2927;49.366;8.530;2023-09-12T03:33:55;18.20;99.90
5802;DHT22;2927;49.366;8.530;2023-09-12T03:36:21;18.20;99.90
5802;DHT22;2927;49.366;8.530;2023-09-12T03:38:46;18.20;99.90
5802;DHT22;2927;49.366;8.530;2023-09-12T03:41:12;18.20;99.90
5802;DHT22;2927;49.366;8.530;2023-09-12T03:43:37;18.30;99.90
5802;DHT22;2927;49.366;8.530;2023-09-12T03:46:03;18.30;99.90
5802;DHT22;2927;49.366;8.530;2023-09-12T03:48:30;18.30;99.90
5802;DHT22;2927;49.366;8.530;2023-09-12T03:50:58;18.30;99.90
5802;DHT22;2927;49.366;8.530;2023-09-12T03:53:24;18.30;99.90
5802;DHT22;2927;49.366;8.530;2023-09-12T03:55:49;18.40;99.90
5802;DHT22;2927;49.366;8.530;2023-09-12T03:58:15;18.40;99.90
5802;DHT22;2927;49.366;8.530;2023-09-12T04:00:40;18.40;99.90
5802;DHT22;2927;49.366;8.530;2023-09-12T04:03:06;18.40;99.90
5802;DHT22;2927;49.366;8.530;2023-09-12T04:05:31;18.40;99.90
5802;DHT22;2927;49.366;8.530;2023-09-12T04:07:57;18.50;99.90
5802;DHT22;2927;49.366;8.530;2023-09-12T04:10:23;18.50;99.90
5802;DHT22;2927;49.366;8.530;2023-09-12T04:12:48;18.50;99.90
5802;DHT22;2927;49.366;8.530;2023-09-12T04:15:14;18.50;99.90
5802;DHT22;2927;49.366;8.530;2023-09-12T04:17:39;18.60;99.90
5802;DHT22;2927;49.366;8.530;2023-09-12T04:20:05;18.60;99.90
5802;DHT22;2927;49.366;8.530;2023-09-12T04:22:31;18.70;99.90
5802;DHT22;2927;49.366;8.530;2023-09-12T04:24:57;18.70;99.90
5802;DHT22;2927;49.366;8.530;2023-09-12T04:27:22;18.70;99.90
5802;DHT22;2927;49.366;8.530;2023-09-12T04:29:48;18.70;99.90
5802;DHT22;2927;49.366;8.530;2023-09-12T04:32:13;18.80;99.90
5802;DHT22;2927;49.366;8.530;2023-09-12T04:34:42;18.70;99.90
5802;DHT22;2927;49.366;8.530;2023-09-12T04:37:08;18.70;99.90
5802;DHT22;2927;49.366;8.530;2023-09-12T04:39:33;18.70;99.90
5802;DHT22;2927;49.366;8.530;2023-09-12T04:41:59;18.80;99.90
5802;DHT22;2927;49.366;8.530;2023-09-12T04:44:24;18.80;99.90
5802;DHT22;2927;49.366;8.530;2023-09-12T04:46:50;18.80;99.90
5802;DHT22;2927;49.366;8.530;2023-09-12T04:49:16;18.80;99.90
5802;DHT22;2927;49.366;8.530;2023-09-12T04:51:41;18.80;99.90
5802;DHT22;2927;49.366;8.530;2023-09-12T04:54:08;18.80;99.90
5802;DHT22;2927;49.366;8.530;2023-09-12T04:56:33;18.80;99.90
5802;DHT22;2927;49.366;8.530;2023-09-12T04:58:59;18.80;99.90
5802;DHT22;2927;49.366;8.530;2023-09-12T05:01:24;18.80;99.90
5802;DHT22;2927;49.366;8.530;2023-09-12T05:03:51;18.90;99.90
5802;DHT22;2927;49.366;8.530;2023-09-12T05:06:16;18.90;99.90
5802;DHT22;2927;49.366;8.530;2023-09-12T05:08:42;19.00;99.90
5802;DHT22;2927;49.366;8.530;2023-09-12T05:11:09;19.00;99.90
5802;DHT22;2927;49.366;8.530;2023-09-12T05:13:35;19.00;99.90
5802;DHT22;2927;49.366;8.530;2023-09-12T05:16:00;19.00;99.90
5802;DHT22;2927;49.366;8.530;2023-09-12T05:18:26;19.00;99.90
5802;DHT22;2927;49.366;8.530;2023-09-12T05:20:51;18.90;99.90
5802;DHT22;2927;49.366;8.530;2023-09-12T05:23:17;18.90;99.90
5802;DHT22;2927;49.366;8.530;2023-09-12T05:25:42;18.90;99.90
5802;DHT22;2927;49.366;8.530;2023-09-12T05:28:08;19.00;99.90
5802;DHT22;2927;49.366;8.530;2023-09-12T05:30:34;19.00;99.90
5802;DHT22;2927;49.366;8.530;2023-09-12T05:32:59;19.00;99.90
5802;DHT22;2927;49.366;8.530;2023-09-12T05:35:25;19.10;99.90
5802;DHT22;2927;49.366;8.530;2023-09-12T05:37:51;19.20;99.90
5802;DHT22;2927;49.366;8.530;2023-09-12T05:40:17;19.30;99.90
5802;DHT22;2927;49.366;8.530;2023-09-12T05:42:43;19.30;99.90
5802;DHT22;2927;49.366;8.530;2023-09-12T05:45:09;19.40;99.90
5802;DHT22;2927;49.366;8.530;2023-09-12T05:47:34;19.40;99.90
5802;DHT22;2927;49.366;8.530;2023-09-12T05:50:00;19.60;99.90
5802;DHT22;2927;49.366;8.530;2023-09-12T05:52:26;19.60;84.00
5802;DHT22;2927;49.366;8.530;2023-09-12T05:54:51;19.70;45.10
5802;DHT22;2927;49.366;8.530;2023-09-12T05:57:17;19.70;1.00
5802;DHT22;2927;49.366;8.530;2023-09-12T05:59:43;19.80;1.00
5802;DHT22;2927;49.366;8.530;2023-09-12T06:02:08;19.90;1.00
5802;DHT22;2927;49.366;8.530;2023-09-12T06:04:35;20.00;1.00
5802;DHT22;2927;49.366;8.530;2023-09-12T06:07:02;20.10;1.00
5802;DHT22;2927;49.366;8.530;2023-09-12T06:09:28;20.10;1.00
5802;DHT22;2927;49.366;8.530;2023-09-12T06:11:53;20.10;1.00
5802;DHT22;2927;49.366;8.530;2023-09-12T06:14:19;20.10;1.00
5802;DHT22;2927;49.366;8.530;2023-09-12T06:16:45;20.20;1.00
5802;DHT22;2927;49.366;8.530;2023-09-12T06:19:11;20.30;1.00
5802;DHT22;2927;49.366;8.530;2023-09-12T06:21:36;21.30;99.90
5802;DHT22;2927;49.366;8.530;2023-09-12T06:24:30;22.20;99.90
5802;DHT22;2927;49.366;8.530;2023-09-12T06:26:56;22.00;1.00
5802;DHT22;2927;49.366;8.530;2023-09-12T06:29:22;21.60;1.00
5802;DHT22;2927;49.366;8.530;2023-09-12T06:31:48;21.90;99.90
5802;DHT22;2927;49.366;8.530;2023-09-12T06:34:13;22.80;1.00
5802;DHT22;2927;49.366;8.530;2023-09-12T06:36:39;23.70;99.90
5802;DHT22;2927;49.366;8.530;2023-09-12T06:39:06;24.90;1.00
5802;DHT22;2927;49.366;8.530;2023-09-12T06:41:32;25.90;1.00
5802;DHT22;2927;49.366;8.530;2023-09-12T06:43:58;26.90;99.90
5802;DHT22;2927;49.366;8.530;2023-09-12T06:46:24;27.80;99.90
5802;DHT22;2927;49.366;8.530;2023-09-12T06:48:50;28.60;99.90
5802;DHT22;2927;49.366;8.530;2023-09-12T06:51:16;28.50;65.90
5802;DHT22;2927;49.366;8.530;2023-09-12T06:53:42;28.30;74.20
5802;DHT22;2927;49.366;8.530;2023-09-12T06:56:08;28.60;47.30
5802;DHT22;2927;49.366;8.530;2023-09-12T06:58:33;29.30;1.00
5802;DHT22;2927;49.366;8.530;2023-09-12T07:01:06;30.10;1.00
5802;DHT22;2927;49.366;8.530;2023-09-12T07:03:33;30.40;1.00
5802;DHT22;2927;49.366;8.530;2023-09-12T07:05:59;32.10;1.00
5802;DHT22;2927;49.366;8.530;2023-09-12T07:08:24;32.40;1.00
5802;DHT22;2927;49.366;8.530;2023-09-12T07:10:50;33.00;1.00
5802;DHT22;2927;49.366;8.530;2023-09-12T07:13:16;32.40;1.00
5802;DHT22;2927;49.366;8.530;2023-09-12T07:15:41;32.10;1.00
5802;DHT22;2927;49.366;8.530;2023-09-12T07:18:07;32.30;1.00
5802;DHT22;2927;49.366;8.530;2023-09-12T07:20:34;32.00;1.00
5802;DHT22;2927;49.366;8.530;2023-09-12T07:22:59;32.20;1.00
5802;DHT22;2927;49.366;8.530;2023-09-12T07:25:25;31.90;1.00
5802;DHT22;2927;49.366;8.530;2023-09-12T07:27:51;32.00;1.00
5802;DHT22;2927;49.366;8.530;2023-09-12T07:30:17;31.90;1.00
5802;DHT22;2927;49.366;8.530;2023-09-12T07:32:43;31.30;1.00
5802;DHT22;2927;49.366;8.530;2023-09-12T07:35:09;30.90;1.00
5802;DHT22;2927;49.366;8.530;2023-09-12T07:37:34;31.20;1.00
5802;DHT22;2927;49.366;8.530;2023-09-12T07:40:00;31.50;1.00
5802;DHT22;2927;49.366;8.530;2023-09-12T07:42:25;31.80;1.00
5802;DHT22;2927;49.366;8.530;2023-09-12T07:44:51;31.60;1.00
5802;DHT22;2927;49.366;8.530;2023-09-12T07:47:17;31.80;1.00
5802;DHT22;2927;49.366;8.530;2023-09-12T07:49:42;31.60;1.00
5802;DHT22;2927;49.366;8.530;2023-09-12T07:52:08;32.20;1.00
5802;DHT22;2927;49.366;8.530;2023-09-12T07:54:33;32.50;1.00
5802;DHT22;2927;49.366;8.530;2023-09-12T07:56:59;32.60;1.00
5802;DHT22;2927;49.366;8.530;2023-09-12T07:59:25;32.20;1.00
5802;DHT22;2927;49.366;8.530;2023-09-12T08:01:51;32.80;1.00
5802;DHT22;2927;49.366;8.530;2023-09-12T08:04:17;33.50;1.00
5802;DHT22;2927;49.366;8.530;2023-09-12T08:06:42;33.30;1.00
5802;DHT22;2927;49.366;8.530;2023-09-12T08:09:08;33.30;1.00
5802;DHT22;2927;49.366;8.530;2023-09-12T08:11:35;33.20;1.00
5802;DHT22;2927;49.366;8.530;2023-09-12T08:14:00;32.80;1.00
5802;DHT22;2927;49.366;8.530;2023-09-12T08:16:26;32.40;1.00
5802;DHT22;2927;49.366;8.530;2023-09-12T08:18:53;32.30;1.00
5802;DHT22;2927;49.366;8.530;2023-09-12T08:21:18;33.00;1.00
5802;DHT22;2927;49.366;8.530;2023-09-12T08:23:44;33.10;1.00
5802;DHT22;2927;49.366;8.530;2023-09-12T08:26:10;33.10;1.00
5802;DHT22;2927;49.366;8.530;2023-09-12T08:28:36;33.60;1.00
5802;DHT22;2927;49.366;8.530;2023-09-12T08:31:01;34.10;1.00
5802;DHT22;2927;49.366;8.530;2023-09-12T08:33:27;34.20;1.00
5802;DHT22;2927;49.366;8.530;2023-09-12T08:35:53;35.20;1.00
5802;DHT22;2927;49.366;8.530;2023-09-12T08:38:18;35.30;1.00
5802;DHT22;2927;49.366;8.530;2023-09-12T08:40:53;35.60;1.00
5802;DHT22;2927;49.366;8.530;2023-09-12T08:43:19;35.50;1.00
5802;DHT22;2927;49.366;8.530;2023-09-12T08:45:45;35.20;1.00
5802;DHT22;2927;49.366;8.530;2023-09-12T08:48:11;35.10;1.00
5802;DHT22;2927;49.366;8.530;2023-09-12T08:50:38;35.10;1.00
5802;DHT22;2927;49.366;8.530;2023-09-12T08:53:04;35.60;1.00
5802;DHT22;2927;49.366;8.530;2023-09-12T08:55:30;35.30;1.00
5802;DHT22;2927;49.366;8.530;2023-09-12T08:57:57;35.70;1.00
5802;DHT22;2927;49.366;8.530;2023-09-12T09:00:24;35.70;1.00
5802;DHT22;2927;49.366;8.530;2023-09-12T09:02:50;36.20;1.00
5802;DHT22;2927;49.366;8.530;2023-09-12T09:05:16;36.30;1.00
5802;DHT22;2927;49.366;8.530;2023-09-12T09:07:43;36.10;1.00
5802;DHT22;2927;49.366;8.530;2023-09-12T09:10:15;35.90;1.00
5802;DHT22;2927;49.366;8.530;2023-09-12T09:12:43;36.20;1.00
5802;DHT22;2927;49.366;8.530;2023-09-12T09:15:28;36.80;1.00
5802;DHT22;2927;49.366;8.530;2023-09-12T09:17:55;36.60;1.00
5802;DHT22;2927;49.366;8.530;2023-09-12T09:20:30;35.80;1.00
5802;DHT22;2927;49.366;8.530;2023-09-12T09:23:03;36.80;1.00
5802;DHT22;2927;49.366;8.530;2023-09-12T09:25:31;36.40;1.00
5802;DHT22;2927;49.366;8.530;2023-09-12T09:27:57;35.90;1.00
5802;DHT22;2927;49.366;8.530;2023-09-12T09:30:40;35.90;1.00
5802;DHT22;2927;49.366;8.530;2023-09-12T09:33:06;36.40;1.00
5802;DHT22;2927;49.366;8.530;2023-09-12T09:35:31;35.60;1.00
5802;DHT22;2927;49.366;8.530;2023-09-12T09:37:57;35.30;1.00
5802;DHT22;2927;49.366;8.530;2023-09-12T09:40:23;35.30;1.00
5802;DHT22;2927;49.366;8.530;2023-09-12T09:42:53;34.90;1.00
5802;DHT22;2927;49.366;8.530;2023-09-12T09:45:19;34.90;1.00
5802;DHT22;2927;49.366;8.530;2023-09-12T09:47:45;34.60;1.00
5802;DHT22;2927;49.366;8.530;2023-09-12T09:50:14;35.50;1.00
5802;DHT22;2927;49.366;8.530;2023-09-12T09:52:39;36.00;1.00
5802;DHT22;2927;49.366;8.530;2023-09-12T09:55:06;35.40;1.00
5802;DHT22;2927;49.366;8.530;2023-09-12T09:57:37;35.10;1.00
5802;DHT22;2927;49.366;8.530;2023-09-12T10:00:03;34.20;1.00
5802;DHT22;2927;49.366;8.530;2023-09-12T10:02:35;33.80;1.00
5802;DHT22;2927;49.366;8.530;2023-09-12T10:05:05;33.70;1.00
5802;DHT22;2927;49.366;8.530;2023-09-12T10:07:37;33.60;1.00
5802;DHT22;2927;49.366;8.530;2023-09-12T10:10:04;32.60;1.00
5802;DHT22;2927;49.366;8.530;2023-09-12T10:12:35;32.30;1.00
5802;DHT22;2927;49.366;8.530;2023-09-12T10:15:02;32.30;1.00
5802;DHT22;2927;49.366;8.530;2023-09-12T10:17:35;32.30;1.00
5802;DHT22;2927;49.366;8.530;2023-09-12T10:20:03;32.40;1.00
5802;DHT22;2927;49.366;8.530;2023-09-12T10:22:44;32.50;1.00
5802;DHT22;2927;49.366;8.530;2023-09-12T10:25:13;32.70;1.00
5802;DHT22;2927;49.366;8.530;2023-09-12T10:27:39;32.70;1.00
5802;DHT22;2927;49.366;8.530;2023-09-12T10:30:05;32.50;1.00
5802;DHT22;2927;49.366;8.530;2023-09-12T10:32:32;32.00;1.00
5802;DHT22;2927;49.366;8.530;2023-09-12T10:34:59;31.60;1.00
5802;DHT22;2927;49.366;8.530;2023-09-12T10:37:26;31.30;1.00
5802;DHT22;2927;49.366;8.530;2023-09-12T10:39:55;30.90;1.00
5802;DHT22;2927;49.366;8.530;2023-09-12T10:42:21;30.40;1.00
5802;DHT22;2927;49.366;8.530;2023-09-12T10:44:49;30.10;1.00
5802;DHT22;2927;49.366;8.530;2023-09-12T10:47:15;29.60;1.00
5802;DHT22;2927;49.366;8.530;2023-09-12T10:49:44;29.60;1.00
5802;DHT22;2927;49.366;8.530;2023-09-12T10:52:09;29.60;1.00
5802;DHT22;2927;49.366;8.530;2023-09-12T10:54:38;29.90;1.00
5802;DHT22;2927;49.366;8.530;2023-09-12T10:57:09;30.20;1.00
5802;DHT22;2927;49.366;8.530;2023-09-12T10:59:38;30.80;1.00
5802;DHT22;2927;49.366;8.530;2023-09-12T11:02:38;31.20;1.00
5802;DHT22;2927;49.366;8.530;2023-09-12T11:07:57;31.30;1.00
5802;DHT22;2927;49.366;8.530;2023-09-12T11:10:24;31.10;1.00
5802;DHT22;2927;49.366;8.530;2023-09-12T11:12:51;30.90;1.00
5802;DHT22;2927;49.366;8.530;2023-09-12T11:15:20;30.80;1.00
5802;DHT22;2927;49.366;8.530;2023-09-12T11:17:47;31.00;1.00
5802;DHT22;2927;49.366;8.530;2023-09-12T11:20:14;31.20;1.00
5802;DHT22;2927;49.366;8.530;2023-09-12T11:22:47;31.40;1.00
5802;DHT22;2927;49.366;8.530;2023-09-12T11:30:19;31.40;1.00
5802;DHT22;2927;49.366;8.530;2023-09-12T11:32:49;31.30;1.00
5802;DHT22;2927;49.366;8.530;2023-09-12T11:35:16;31.30;1.00
5802;DHT22;2927;49.366;8.530;2023-09-12T11:37:56;31.30;1.00
5802;DHT22;2927;49.366;8.530;2023-09-12T11:40:41;31.20;1.00
5802;DHT22;2927;49.366;8.530;2023-09-12T11:43:19;31.20;1.00
5802;DHT22;2927;49.366;8.530;2023-09-12T11:45:45;31.50;1.00
5802;DHT22;2927;49.366;8.530;2023-09-12T11:48:12;31.70;1.00
5802;DHT22;2927;49.366;8.530;2023-09-12T11:50:37;31.90;1.00
5802;DHT22;2927;49.366;8.530;2023-09-12T11:53:08;32.00;1.00
5802;DHT22;2927;49.366;8.530;2023-09-12T11:55:42;32.00;1.00
5802;DHT22;2927;49.366;8.530;2023-09-12T11:58:10;31.90;1.00
5802;DHT22;2927;49.366;8.530;2023-09-12T12:00:36;32.00;1.00
5802;DHT22;2927;49.366;8.530;2023-09-12T12:03:03;32.00;1.00
5802;DHT22;2927;49.366;8.530;2023-09-12T12:05:29;31.80;1.00
5802;DHT22;2927;49.366;8.530;2023-09-12T12:07:55;31.90;1.00
5802;DHT22;2927;49.366;8.530;2023-09-12T12:10:20;31.80;1.00
5802;DHT22;2927;49.366;8.530;2023-09-12T12:12:53;31.70;1.00
5802;DHT22;2927;49.366;8.530;2023-09-12T12:15:18;31.90;1.00
5802;DHT22;2927;49.366;8.530;2023-09-12T12:17:44;32.00;1.00
5802;DHT22;2927;49.366;8.530;2023-09-12T12:20:10;32.10;1.00
5802;DHT22;2927;49.366;8.530;2023-09-12T12:22:40;32.20;1.00
5802;DHT22;2927;49.366;8.530;2023-09-12T12:25:10;32.20;1.00
5802;DHT22;2927;49.366;8.530;2023-09-12T12:27:39;32.10;1.00
5802;DHT22;2927;49.366;8.530;2023-09-12T12:30:10;32.20;1.00
5802;DHT22;2927;49.366;8.530;2023-09-12T12:32:40;32.20;1.00
5802;DHT22;2927;49.366;8.530;2023-09-12T12:35:06;32.20;1.00
5802;DHT22;2927;49.366;8.530;2023-09-12T12:37:32;32.30;1.00
5802;DHT22;2927;49.366;8.530;2023-09-12T12:39:59;32.30;1.00
5802;DHT22;2927;49.366;8.530;2023-09-12T12:42:37;32.20;1.00
5802;DHT22;2927;49.366;8.530;2023-09-12T12:45:13;31.90;1.00
5802;DHT22;2927;49.366;8.530;2023-09-12T12:47:39;31.80;1.00
5802;DHT22;2927;49.366;8.530;2023-09-12T12:50:14;31.80;1.00
5802;DHT22;2927;49.366;8.530;2023-09-12T12:52:40;31.70;1.00
5802;DHT22;2927;49.366;8.530;2023-09-12T12:55:10;31.70;1.00
5802;DHT22;2927;49.366;8.530;2023-09-12T12:57:40;31.90;1.00
5802;DHT22;2927;49.366;8.530;2023-09-12T13:00:13;31.80;1.00
5802;DHT22;2927;49.366;8.530;2023-09-12T13:02:40;31.70;1.00
5802;DHT22;2927;49.366;8.530;2023-09-12T13:07:48;31.70;1.00
5802;DHT22;2927;49.366;8.530;2023-09-12T13:10:14;31.80;1.00
5802;DHT22;2927;49.366;8.530;2023-09-12T13:12:40;32.00;1.00
5802;DHT22;2927;49.366;8.530;2023-09-12T13:15:05;32.10;1.00
5802;DHT22;2927;49.366;8.530;2023-09-12T13:17:31;32.10;1.00
5802;DHT22;2927;49.366;8.530;2023-09-12T13:19:57;32.10;1.00
5802;DHT22;2927;49.366;8.530;2023-09-12T13:22:22;32.00;1.00
5802;DHT22;2927;49.366;8.530;2023-09-12T13:24:48;31.90;1.00
5802;DHT22;2927;49.366;8.530;2023-09-12T13:27:13;32.00;1.00
5802;DHT22;2927;49.366;8.530;2023-09-12T13:29:39;32.00;1.00
5802;DHT22;2927;49.366;8.530;2023-09-12T13:32:05;32.10;1.00
5802;DHT22;2927;49.366;8.530;2023-09-12T13:34:30;32.20;1.00
5802;DHT22;2927;49.366;8.530;2023-09-12T13:36:56;32.20;1.00
5802;DHT22;2927;49.366;8.530;2023-09-12T13:39:24;32.10;1.00
5802;DHT22;2927;49.366;8.530;2023-09-12T13:41:49;32.20;1.00
5802;DHT22;2927;49.366;8.530;2023-09-12T13:44:15;32.20;1.00
5802;DHT22;2927;49.366;8.530;2023-09-12T13:46:41;32.30;1.00
5802;DHT22;2927;49.366;8.530;2023-09-12T13:49:09;32.20;1.00
5802;DHT22;2927;49.366;8.530;2023-09-12T13:51:35;32.30;1.00
5802;DHT22;2927;49.366;8.530;2023-09-12T13:54:01;32.40;1.00
5802;DHT22;2927;49.366;8.530;2023-09-12T13:56:27;32.40;1.00
5802;DHT22;2927;49.366;8.530;2023-09-12T13:58:53;32.30;1.00
5802;DHT22;2927;49.366;8.530;2023-09-12T14:01:19;32.30;1.00
5802;DHT22;2927;49.366;8.530;2023-09-12T14:03:45;32.20;1.00
5802;DHT22;2927;49.366;8.530;2023-09-12T14:06:11;32.00;1.00
5802;DHT22;2927;49.366;8.530;2023-09-12T14:08:36;32.00;1.00
5802;DHT22;2927;49.366;8.530;2023-09-12T14:11:02;32.10;1.00
5802;DHT22;2927;49.366;8.530;2023-09-12T14:13:28;32.20;1.00
5802;DHT22;2927;49.366;8.530;2023-09-12T14:15:53;32.30;1.00
5802;DHT22;2927;49.366;8.530;2023-09-12T14:18:19;32.30;1.00
5802;DHT22;2927;49.366;8.530;2023-09-12T14:20:46;32.40;1.00
5802;DHT22;2927;49.366;8.530;2023-09-12T14:23:12;32.50;1.00
5802;DHT22;2927;49.366;8.530;2023-09-12T14:25:37;32.50;1.00
5802;DHT22;2927;49.366;8.530;2023-09-12T14:28:03;32.60;1.00
5802;DHT22;2927;49.366;8.530;2023-09-12T14:30:30;32.50;1.00
5802;DHT22;2927;49.366;8.530;2023-09-12T14:33:01;32.40;1.00
5802;DHT22;2927;49.366;8.530;2023-09-12T14:35:27;32.20;1.00
5802;DHT22;2927;49.366;8.530;2023-09-12T14:37:53;32.20;1.00
5802;DHT22;2927;49.366;8.530;2023-09-12T14:40:18;32.00;1.00
5802;DHT22;2927;49.366;8.530;2023-09-12T14:42:44;32.20;1.00
5802;DHT22;2927;49.366;8.530;2023-09-12T14:45:10;32.20;1.00
5802;DHT22;2927;49.366;8.530;2023-09-12T14:47:35;32.20;1.00
5802;DHT22;2927;49.366;8.530;2023-09-12T14:50:02;32.30;1.00
5802;DHT22;2927;49.366;8.530;2023-09-12T14:52:27;32.30;1.00
5802;DHT22;2927;49.366;8.530;2023-09-12T14:54:53;32.40;1.00
5802;DHT22;2927;49.366;8.530;2023-09-12T14:57:18;32.40;1.00
5802;DHT22;2927;49.366;8.530;2023-09-12T14:59:45;32.40;1.00
5802;DHT22;2927;49.366;8.530;2023-09-12T15:02:11;32.30;1.00
5802;DHT22;2927;49.366;8.530;2023-09-12T15:04:36;32.30;1.00
5802;DHT22;2927;49.366;8.530;2023-09-12T15:07:02;32.30;1.00
5802;DHT22;2927;49.366;8.530;2023-09-12T15:09:28;32.30;1.00
5802;DHT22;2927;49.366;8.530;2023-09-12T15:11:54;32.30;1.00
5802;DHT22;2927;49.366;8.530;2023-09-12T15:14:19;32.30;1.00
5802;DHT22;2927;49.366;8.530;2023-09-12T15:16:45;32.40;1.00
5802;DHT22;2927;49.366;8.530;2023-09-12T15:19:11;32.40;1.00
5802;DHT22;2927;49.366;8.530;2023-09-12T15:21:36;32.40;1.00
5802;DHT22;2927;49.366;8.530;2023-09-12T15:24:05;32.50;1.00
5802;DHT22;2927;49.366;8.530;2023-09-12T15:26:30;32.40;1.00
5802;DHT22;2927;49.366;8.530;2023-09-12T15:28:56;32.30;1.00
5802;DHT22;2927;49.366;8.530;2023-09-12T15:31:22;32.40;1.00
5802;DHT22;2927;49.366;8.530;2023-09-12T15:33:47;32.30;1.00
5802;DHT22;2927;49.366;8.530;2023-09-12T15:36:13;32.20;1.00
5802;DHT22;2927;49.366;8.530;2023-09-12T15:38:39;32.20;1.00
5802;DHT22;2927;49.366;8.530;2023-09-12T15:41:04;32.20;1.00
5802;DHT22;2927;49.366;8.530;2023-09-12T15:43:33;32.10;1.00
5802;DHT22;2927;49.366;8.530;2023-09-12T15:46:02;32.30;1.00
5802;DHT22;2927;49.366;8.530;2023-09-12T15:48:28;32.20;1.00
5802;DHT22;2927;49.366;8.530;2023-09-12T15:50:54;32.20;1.00
5802;DHT22;2927;49.366;8.530;2023-09-12T15:53:20;32.20;1.00
5802;DHT22;2927;49.366;8.530;2023-09-12T15:55:46;32.20;1.00
5802;DHT22;2927;49.366;8.530;2023-09-12T15:58:14;32.20;1.00
5802;DHT22;2927;49.366;8.530;2023-09-12T16:00:39;32.10;1.00
5802;DHT22;2927;49.366;8.530;2023-09-12T16:03:05;32.00;1.00
5802;DHT22;2927;49.366;8.530;2023-09-12T16:05:30;31.90;1.00
5802;DHT22;2927;49.366;8.530;2023-09-12T16:07:56;32.00;1.00
5802;DHT22;2927;49.366;8.530;2023-09-12T16:10:23;31.80;1.00
5802;DHT22;2927;49.366;8.530;2023-09-12T16:12:48;31.70;1.00
5802;DHT22;2927;49.366;8.530;2023-09-12T16:15:14;31.60;1.00
5802;DHT22;2927;49.366;8.530;2023-09-12T16:17:40;31.50;1.00
5802;DHT22;2927;49.366;8.530;2023-09-12T16:20:09;31.50;1.00
5802;DHT22;2927;49.366;8.530;2023-09-12T16:22:38;31.50;1.00
5802;DHT22;2927;49.366;8.530;2023-09-12T16:25:04;31.40;1.00